Time;durP1;ratioP1;P1;durP2;ratioP2;P2;SDS_P1;SDS_P2;PMS_P1;PMS_P2;Temp;Humidity;BMP_temperature;BMP_pressure;BME280_temperature;BME280_humidity;BME280_pressure;Samples;Min_cycle;Max_cycle;Signal;HPM_P1;HPM_P2
2022/01/05 00:01:10;;;;;;;4.47;2.03;;;3.60;99.90;;;;;;4991607;28;20277;-82
2022/01/05 00:03:36;;;;;;;2.80;1.50;;;3.50;99.90;;;;;;4990709;28;20186;-82
2022/01/05 00:06:03;;;;;;;3.63;1.90;;;3.50;99.90;;;;;;4991664;28;20178;-82
2022/01/05 00:08:29;;;;;;;2.70;1.50;;;3.40;99.90;;;;;;4993623;28;20478;-82
2022/01/05 00:10:55;;;;;;;4.60;1.70;;;3.30;99.90;;;;;;4993376;28;20551;-82
2022/01/05 00:13:22;;;;;;;2.93;1.77;;;3.30;99.90;;;;;;4993264;28;20440;-82
2022/01/05 00:15:48;;;;;;;5.30;2.60;;;3.30;99.90;;;;;;4993277;28;20472;-82
2022/01/05 00:18:13;;;;;;;3.33;1.53;;;3.30;99.90;;;;;;4992929;28;20417;-82
2022/01/05 00:20:39;;;;;;;6.40;1.87;;;3.20;99.90;;;;;;4993423;28;20420;-82
2022/01/05 00:23:05;;;;;;;4.00;1.80;;;3.20;99.90;;;;;;4992529;28;20495;-82
2022/01/05 00:25:31;;;;;;;5.13;2.37;;;3.30;99.90;;;;;;5018062;22;20494;-84
2022/01/05 00:27:56;;;;;;;8.10;2.60;;;3.20;99.90;;;;;;5031549;28;20185;-84
2022/01/05 00:30:22;;;;;;;4.17;2.10;;;3.30;99.90;;;;;;5014179;28;20290;-84
2022/01/05 00:32:47;;;;;;;7.00;2.73;;;3.30;99.90;;;;;;5011739;28;20184;-84
2022/01/05 00:35:13;;;;;;;3.20;2.53;;;3.20;99.90;;;;;;4995377;28;20197;-85
2022/01/05 00:37:38;;;;;;;5.13;2.10;;;3.30;99.90;;;;;;5011063;28;20233;-84
2022/01/05 00:40:06;;;;;;;4.03;2.23;;;3.40;99.90;;;;;;5011037;28;20185;-85
2022/01/05 00:42:32;;;;;;;5.50;1.80;;;3.40;99.90;;;;;;5011001;28;20636;-84
2022/01/05 00:44:58;;;;;;;6.10;2.10;;;3.40;99.90;;;;;;5011062;28;20427;-86
2022/01/05 00:47:23;;;;;;;6.80;2.97;;;3.40;99.90;;;;;;5010880;28;20189;-85
2022/01/05 00:49:49;;;;;;;5.67;2.10;;;3.50;99.90;;;;;;5011156;28;20206;-85
2022/01/05 00:52:14;;;;;;;4.20;1.70;;;3.40;99.90;;;;;;5011055;28;20181;-85
2022/01/05 00:54:41;;;;;;;3.90;1.83;;;3.40;99.90;;;;;;5012127;28;20221;-84
2022/01/05 00:57:07;;;;;;;6.47;2.10;;;3.40;99.90;;;;;;5010687;28;20201;-84
2022/01/05 00:59:33;;;;;;;4.17;2.23;;;3.50;99.90;;;;;;4994573;28;20438;-84
2022/01/05 01:01:58;;;;;;;3.97;2.33;;;3.40;99.90;;;;;;5012343;28;20420;-85
2022/01/05 01:04:24;;;;;;;5.10;3.03;;;3.50;99.90;;;;;;4994684;28;20288;-85
2022/01/05 01:06:50;;;;;;;4.33;2.77;;;3.60;99.90;;;;;;4994197;28;20210;-85
2022/01/05 01:09:16;;;;;;;4.60;2.87;;;3.70;99.90;;;;;;4994716;28;20221;-85
2022/01/05 01:11:41;;;;;;;4.30;2.60;;;3.70;99.90;;;;;;5011867;28;20185;-84
2022/01/05 01:14:07;;;;;;;4.27;2.40;;;3.70;99.90;;;;;;4994852;28;20282;-84
2022/01/05 01:16:33;;;;;;;5.57;3.00;;;3.70;99.90;;;;;;5015362;28;20680;-86
2022/01/05 01:18:59;;;;;;;4.67;2.90;;;3.60;99.90;;;;;;4998208;28;20427;-84
2022/01/05 01:21:24;;;;;;;5.17;3.33;;;3.60;99.90;;;;;;5015545;28;20723;-86
2022/01/05 01:23:55;;;;;;;6.00;3.30;;;3.70;99.90;;;;;;5015488;28;20696;-85
2022/01/05 01:26:31;;;;;;;12.20;4.00;;;3.70;99.90;;;;;;5014939;28;20286;-83
2022/01/05 01:28:57;;;;;;;5.50;4.23;;;3.70;99.90;;;;;;4997758;28;20415;-85
2022/01/05 01:31:24;;;;;;;7.33;3.30;;;3.70;99.90;;;;;;4997625;28;20471;-85
2022/01/05 01:33:50;;;;;;;5.87;2.97;;;3.80;99.90;;;;;;5015418;28;20415;-84
2022/01/05 01:36:16;;;;;;;6.30;4.10;;;3.60;99.90;;;;;;5014803;28;20511;-85
2022/01/05 01:38:42;;;;;;;9.57;4.90;;;3.70;99.90;;;;;;4997291;28;20178;-85
2022/01/05 01:41:08;;;;;;;5.30;3.40;;;3.50;99.90;;;;;;4997276;28;20424;-84
2022/01/05 01:43:34;;;;;;;6.70;3.67;;;3.40;99.90;;;;;;5014961;28;20610;-84
2022/01/05 01:46:00;;;;;;;6.33;3.43;;;3.50;99.90;;;;;;4997216;28;20874;-84
2022/01/05 01:48:26;;;;;;;8.03;3.80;;;3.50;99.90;;;;;;4997188;28;20644;-85
2022/01/05 01:50:52;;;;;;;10.73;3.63;;;3.60;99.90;;;;;;4996934;28;20467;-85
2022/01/05 01:53:17;;;;;;;5.63;4.30;;;3.50;99.90;;;;;;5014891;28;20412;-85
2022/01/05 01:55:43;;;;;;;5.90;3.57;;;3.40;99.90;;;;;;4997354;28;20197;-85
2022/01/05 01:58:09;;;;;;;5.50;3.70;;;3.40;99.90;;;;;;5014349;28;20245;-85
2022/01/05 02:00:35;;;;;;;8.23;4.90;;;3.40;99.90;;;;;;5014662;28;20698;-84
2022/01/05 02:03:01;;;;;;;10.40;5.60;;;3.30;99.90;;;;;;4997120;28;20181;-84
2022/01/05 02:05:27;;;;;;;9.90;6.17;;;3.10;99.90;;;;;;4996786;28;20557;-84
2022/01/05 02:07:53;;;;;;;13.23;7.30;;;3.10;99.90;;;;;;4997335;28;20430;-85
2022/01/05 02:10:18;;;;;;;10.00;5.83;;;3.10;99.90;;;;;;4997885;28;20234;-85
2022/01/05 02:12:44;;;;;;;8.77;5.87;;;3.10;99.90;;;;;;4997639;28;20176;-85
2022/01/05 02:15:11;;;;;;;13.03;6.77;;;3.10;99.90;;;;;;4997530;28;20668;-85
2022/01/05 02:17:51;;;;;;;11.53;6.37;;;3.10;99.90;;;;;;4997265;28;20184;-86
2022/01/05 02:20:23;;;;;;;12.20;7.73;;;3.00;99.90;;;;;;4997796;28;20440;-85
2022/01/05 02:22:49;;;;;;;11.60;6.83;;;3.00;99.90;;;;;;4997390;28;20427;-85
2022/01/05 02:25:15;;;;;;;8.43;5.17;;;3.00;99.90;;;;;;4996952;28;20962;-85
2022/01/05 02:27:43;;;;;;;10.97;6.40;;;3.00;99.90;;;;;;4996562;28;20180;-84
2022/01/05 02:30:10;;;;;;;10.13;6.00;;;3.00;99.90;;;;;;5014665;28;20486;-85
2022/01/05 02:32:36;;;;;;;9.20;5.47;;;3.00;99.90;;;;;;4997113;28;20423;-85
2022/01/05 02:35:03;;;;;;;7.80;4.87;;;3.00;99.90;;;;;;4997290;28;20670;-85
2022/01/05 02:37:28;;;;;;;7.70;4.80;;;3.10;99.90;;;;;;5014770;28;20419;-85
2022/01/05 02:39:54;;;;;;;7.90;5.27;;;3.00;99.90;;;;;;5014914;28;20408;-85
2022/01/05 02:42:29;;;;;;;7.53;4.40;;;3.00;99.90;;;;;;5014783;28;20178;-85
2022/01/05 02:44:56;;;;;;;7.47;4.60;;;3.00;99.90;;;;;;4997076;28;20272;-85
2022/01/05 02:47:22;;;;;;;7.33;4.70;;;3.00;99.90;;;;;;4996252;28;20773;-85
2022/01/05 02:49:48;;;;;;;9.67;4.97;;;3.00;99.90;;;;;;5001939;28;20483;-86
2022/01/05 02:52:14;;;;;;;8.70;4.50;;;2.90;99.90;;;;;;5001505;28;20426;-86
2022/01/05 02:54:41;;;;;;;7.53;3.90;;;2.90;99.90;;;;;;5001237;28;20187;-86
2022/01/05 02:57:07;;;;;;;6.33;4.10;;;2.90;99.90;;;;;;5018258;28;20974;-86
2022/01/05 02:59:33;;;;;;;9.90;4.83;;;3.00;99.90;;;;;;5000482;28;20423;-86
2022/01/05 03:01:58;;;;;;;7.90;3.70;;;2.90;99.90;;;;;;5018817;28;20177;-86
2022/01/05 03:04:26;;;;;;;9.90;4.50;;;2.90;99.90;;;;;;5001227;28;20263;-86
2022/01/05 03:06:52;;;;;;;8.30;3.20;;;2.90;99.90;;;;;;5000595;28;20692;-86
2022/01/05 03:09:18;;;;;;;6.37;3.90;;;2.90;99.90;;;;;;5000623;28;20822;-86
2022/01/05 03:11:43;;;;;;;6.80;4.27;;;2.80;99.90;;;;;;5000423;28;20416;-86
2022/01/05 03:14:09;;;;;;;8.40;3.97;;;2.80;99.90;;;;;;5000042;28;20177;-87
2022/01/05 03:16:36;;;;;;;7.37;3.90;;;2.80;99.90;;;;;;5016711;28;20200;-85
2022/01/05 03:19:02;;;;;;;11.90;3.20;;;2.80;99.90;;;;;;5000033;28;20580;-86
2022/01/05 03:21:27;;;;;;;4.73;3.70;;;2.80;99.90;;;;;;4999256;28;20428;-86
2022/01/05 03:23:53;;;;;;;6.57;4.40;;;2.80;99.90;;;;;;5017166;28;20419;-86
2022/01/05 03:26:18;;;;;;;8.30;4.60;;;2.80;99.90;;;;;;5016572;28;20299;-86
2022/01/05 03:28:44;;;;;;;7.00;4.43;;;2.80;99.90;;;;;;4998647;28;20188;-86
2022/01/05 03:31:09;;;;;;;9.97;3.90;;;2.70;99.90;;;;;;4998997;28;20332;-86
2022/01/05 03:33:35;;;;;;;7.90;4.10;;;2.70;99.90;;;;;;4999514;28;20184;-86
2022/01/05 03:36:01;;;;;;;6.80;4.00;;;2.70;99.90;;;;;;4999143;28;20669;-85
2022/01/05 03:38:28;;;;;;;11.97;4.63;;;2.70;99.90;;;;;;4998190;28;20188;-86
2022/01/05 03:40:54;;;;;;;8.57;4.20;;;2.60;99.90;;;;;;4999070;28;20184;-84
2022/01/05 03:43:20;;;;;;;8.40;4.17;;;2.70;99.90;;;;;;4998840;28;20423;-86
2022/01/05 03:45:47;;;;;;;9.47;4.53;;;2.60;99.90;;;;;;4998671;28;20444;-85
2022/01/05 03:48:14;;;;;;;11.07;4.17;;;2.70;99.90;;;;;;4998276;28;20192;-86
2022/01/05 03:50:40;;;;;;;9.53;4.23;;;2.70;99.90;;;;;;4998378;28;20978;-87
2022/01/05 03:53:07;;;;;;;15.03;4.80;;;2.50;99.90;;;;;;4998203;28;20486;-85
2022/01/05 03:55:34;;;;;;;6.60;4.13;;;2.60;99.90;;;;;;4998978;28;20699;-86
2022/01/05 03:58:01;;;;;;;5.87;4.30;;;2.60;99.90;;;;;;4997588;28;20419;-86
2022/01/05 04:00:29;;;;;;;6.83;3.93;;;2.60;99.90;;;;;;4998425;28;20427;-86
2022/01/05 04:02:56;;;;;;;16.13;4.57;;;2.60;99.90;;;;;;4997788;28;20843;-87
2022/01/05 04:05:22;;;;;;;9.80;4.97;;;2.60;99.90;;;;;;5015800;28;20535;-87
2022/01/05 04:07:49;;;;;;;8.30;3.83;;;2.50;99.90;;;;;;5015237;28;20455;-85
2022/01/05 04:10:15;;;;;;;11.13;3.90;;;2.60;99.90;;;;;;4997808;28;20562;-87
2022/01/05 04:12:41;;;;;;;6.43;3.10;;;2.50;99.90;;;;;;4997822;28;20469;-87
2022/01/05 04:15:07;;;;;;;11.43;3.70;;;2.50;99.90;;;;;;4997066;28;20447;-87
2022/01/05 04:17:33;;;;;;;14.90;3.90;;;2.50;99.90;;;;;;5015097;28;20214;-86
2022/01/05 04:19:58;;;;;;;8.13;3.63;;;2.50;99.90;;;;;;4996992;28;20890;-86
2022/01/05 04:22:24;;;;;;;9.90;3.87;;;2.50;99.90;;;;;;5014750;28;20260;-85
2022/01/05 04:24:50;;;;;;;6.77;3.60;;;2.50;99.90;;;;;;5014900;28;20192;-86
2022/01/05 04:27:16;;;;;;;6.27;3.20;;;2.40;99.90;;;;;;4996451;28;20333;-86
2022/01/05 04:29:42;;;;;;;6.80;2.77;;;2.40;99.90;;;;;;4997039;28;20208;-86
2022/01/05 04:32:08;;;;;;;6.10;3.13;;;2.40;99.90;;;;;;4997343;28;20447;-86
2022/01/05 04:34:34;;;;;;;6.97;2.77;;;2.40;99.90;;;;;;4996913;28;20432;-85
2022/01/05 04:36:59;;;;;;;7.27;3.87;;;2.30;99.90;;;;;;4996879;28;20435;-86
2022/01/05 04:39:25;;;;;;;10.40;2.77;;;2.40;99.90;;;;;;4996587;28;20985;-87
2022/01/05 04:41:50;;;;;;;5.07;2.87;;;2.30;99.90;;;;;;5014265;28;20203;-84
2022/01/05 04:44:16;;;;;;;7.00;3.83;;;2.30;99.90;;;;;;4996785;28;20262;-86
2022/01/05 04:46:42;;;;;;;5.97;3.20;;;2.30;99.90;;;;;;5012235;28;20208;-85
2022/01/05 04:49:07;;;;;;;20.17;5.37;;;2.30;99.90;;;;;;4994624;28;20216;-85
2022/01/05 04:51:33;;;;;;;7.50;2.87;;;2.40;99.90;;;;;;4998007;28;20185;-85
2022/01/05 04:53:58;;;;;;;6.67;3.00;;;2.40;99.90;;;;;;4998371;28;20758;-85
2022/01/05 04:56:24;;;;;;;12.63;3.83;;;2.40;99.90;;;;;;5015436;28;20268;-85
2022/01/05 04:58:49;;;;;;;7.30;3.57;;;2.40;99.90;;;;;;4998092;28;20172;-85
2022/01/05 05:01:15;;;;;;;11.37;4.50;;;2.40;99.90;;;;;;4998033;28;20184;-84
2022/01/05 05:03:40;;;;;;;9.33;3.80;;;2.30;99.90;;;;;;4998323;28;20182;-85
2022/01/05 05:06:06;;;;;;;11.50;3.90;;;2.40;99.90;;;;;;4997983;28;20258;-85
2022/01/05 05:08:31;;;;;;;9.10;4.57;;;2.30;99.90;;;;;;5015595;28;20218;-86
2022/01/05 05:10:57;;;;;;;11.80;3.70;;;2.30;99.90;;;;;;5015639;28;20212;-84
2022/01/05 05:13:23;;;;;;;7.90;3.40;;;2.30;99.90;;;;;;4998421;28;20184;-85
2022/01/05 05:15:48;;;;;;;5.67;3.10;;;2.30;99.90;;;;;;4998134;28;20630;-85
2022/01/05 05:18:14;;;;;;;7.10;3.00;;;2.30;99.90;;;;;;4997854;28;20188;-85
2022/01/05 05:20:40;;;;;;;5.23;2.70;;;2.30;99.90;;;;;;4997858;28;20215;-85
2022/01/05 05:23:06;;;;;;;5.17;2.53;;;2.30;99.90;;;;;;4997636;28;20658;-85
2022/01/05 05:25:33;;;;;;;8.40;3.27;;;2.20;99.90;;;;;;4997709;28;20814;-85
2022/01/05 05:27:58;;;;;;;10.37;2.97;;;2.20;99.90;;;;;;4997613;28;20423;-84
2022/01/05 05:30:24;;;;;;;6.83;2.90;;;2.20;99.90;;;;;;5015407;28;20468;-85
2022/01/05 05:32:49;;;;;;;5.83;2.27;;;2.20;99.90;;;;;;4998103;28;20179;-85
2022/01/05 05:35:15;;;;;;;9.80;3.83;;;2.10;99.90;;;;;;4997856;28;20250;-84
2022/01/05 05:37:41;;;;;;;7.17;2.50;;;2.10;99.90;;;;;;5002640;28;20190;-86
2022/01/05 05:40:07;;;;;;;4.47;2.60;;;2.10;99.90;;;;;;4997766;28;20430;-86
2022/01/05 05:42:33;;;;;;;7.13;2.50;;;2.10;99.90;;;;;;5015586;28;20188;-86
2022/01/05 05:44:58;;;;;;;7.43;2.23;;;2.20;99.90;;;;;;5015099;28;20419;-85
2022/01/05 05:47:24;;;;;;;6.07;2.70;;;2.20;99.90;;;;;;4997644;28;20184;-85
2022/01/05 05:49:49;;;;;;;6.77;3.10;;;2.20;99.90;;;;;;4997535;28;20212;-86
2022/01/05 05:52:16;;;;;;;6.63;2.03;;;2.20;99.90;;;;;;4997657;28;20178;-86
2022/01/05 05:54:42;;;;;;;11.83;4.30;;;2.20;99.90;;;;;;4997582;28;20559;-84
2022/01/05 05:57:07;;;;;;;7.17;2.43;;;2.20;99.90;;;;;;4997546;28;20807;-84
2022/01/05 05:59:33;;;;;;;3.70;2.23;;;2.10;99.90;;;;;;5014922;28;20415;-85
2022/01/05 06:01:59;;;;;;;13.00;2.10;;;2.10;99.90;;;;;;4996288;28;20218;-84
2022/01/05 06:04:25;;;;;;;6.37;2.23;;;2.10;99.90;;;;;;4997466;28;20226;-84
2022/01/05 06:06:51;;;;;;;9.67;2.73;;;2.20;99.90;;;;;;5015031;28;20470;-86
2022/01/05 06:09:16;;;;;;;10.70;2.53;;;2.20;99.90;;;;;;5013733;28;20203;-87
2022/01/05 06:11:42;;;;;;;8.83;3.23;;;2.20;99.90;;;;;;4997405;28;20422;-86
2022/01/05 06:14:07;;;;;;;10.13;2.50;;;2.20;99.90;;;;;;4997579;28;20218;-86
2022/01/05 06:16:33;;;;;;;7.73;2.90;;;2.30;99.90;;;;;;5013570;28;20204;-85
2022/01/05 06:18:58;;;;;;;11.20;2.93;;;2.40;99.90;;;;;;4997741;28;20231;-84
2022/01/05 06:21:24;;;;;;;10.53;3.00;;;2.50;99.90;;;;;;4997002;28;20662;-84
2022/01/05 06:23:49;;;;;;;4.50;2.63;;;2.50;99.90;;;;;;4997390;28;20196;-85
2022/01/05 06:26:15;;;;;;;4.90;2.60;;;2.50;99.90;;;;;;5051928;23;20247;-81
2022/01/05 06:28:41;;;;;;;10.87;3.57;;;2.60;99.90;;;;;;4997199;28;20668;-80
2022/01/05 06:31:07;;;;;;;8.00;4.00;;;2.50;99.90;;;;;;5012881;28;20208;-80
2022/01/05 06:33:36;;;;;;;7.67;3.67;;;2.50;99.90;;;;;;5009277;28;20294;-81
2022/01/05 06:36:01;;;;;;;6.00;2.80;;;2.50;99.90;;;;;;5016173;28;20426;-81
2022/01/05 06:38:27;;;;;;;6.27;2.70;;;2.60;99.90;;;;;;5016441;28;20428;-80
2022/01/05 06:40:53;;;;;;;6.20;3.10;;;2.60;99.90;;;;;;5016107;28;20179;-81
2022/01/05 06:43:18;;;;;;;10.37;3.63;;;2.70;99.90;;;;;;5015761;28;20231;-81
2022/01/05 06:45:44;;;;;;;7.23;3.27;;;2.70;99.90;;;;;;5002018;28;20183;-80
2022/01/05 06:48:10;;;;;;;6.17;2.50;;;2.80;99.90;;;;;;4996405;28;20179;-80
2022/01/05 06:50:36;;;;;;;6.20;2.67;;;2.70;99.90;;;;;;4996424;28;20616;-81
2022/01/05 06:53:02;;;;;;;7.73;2.80;;;2.80;99.90;;;;;;4996435;28;20235;-81
2022/01/05 06:55:28;;;;;;;8.67;2.80;;;2.80;99.90;;;;;;4996425;28;20186;-82
2022/01/05 06:57:54;;;;;;;5.70;2.37;;;2.90;99.90;;;;;;4996500;28;20493;-82
2022/01/05 07:00:21;;;;;;;7.30;2.63;;;2.90;99.90;;;;;;4996712;28;20196;-81
2022/01/05 07:02:47;;;;;;;8.83;2.33;;;2.90;99.90;;;;;;4996412;28;20501;-81
2022/01/05 07:05:13;;;;;;;4.23;2.50;;;3.00;99.90;;;;;;4995889;28;20842;-82
2022/01/05 07:07:38;;;;;;;5.17;2.53;;;2.90;99.90;;;;;;4995775;28;20427;-81
2022/01/05 07:10:06;;;;;;;9.17;2.53;;;2.90;99.90;;;;;;4995652;28;20240;-79
2022/01/05 07:12:33;;;;;;;5.17;3.07;;;3.00;99.90;;;;;;4995496;28;20203;-80
2022/01/05 07:14:59;;;;;;;8.77;3.67;;;3.00;99.90;;;;;;4995666;28;20472;-79
2022/01/05 07:17:24;;;;;;;7.50;3.10;;;3.00;99.90;;;;;;4995664;28;20518;-80
2022/01/05 07:19:50;;;;;;;5.10;2.60;;;3.10;99.90;;;;;;4995550;28;20195;-80
2022/01/05 07:22:16;;;;;;;8.33;3.20;;;3.10;99.90;;;;;;4995790;28;20255;-79
2022/01/05 07:24:42;;;;;;;7.07;2.73;;;3.10;99.90;;;;;;4995575;28;20322;-79
2022/01/05 07:27:08;;;;;;;5.40;2.77;;;3.10;99.90;;;;;;4995291;28;20454;-79
2022/01/05 07:29:37;;;;;;;10.27;3.97;;;3.10;99.90;;;;;;4995355;28;20981;-79
2022/01/05 07:32:04;;;;;;;11.17;3.07;;;3.10;99.90;;;;;;5000225;28;20946;-81
2022/01/05 07:34:29;;;;;;;7.30;3.23;;;3.10;99.90;;;;;;5000882;28;20791;-80
2022/01/05 07:36:55;;;;;;;13.53;4.57;;;3.00;99.90;;;;;;4999802;28;20455;-80
2022/01/05 07:39:21;;;;;;;10.83;3.80;;;3.10;99.90;;;;;;5000520;28;20191;-80
2022/01/05 07:41:47;;;;;;;5.63;2.90;;;3.10;99.90;;;;;;4999850;28;20210;-80
2022/01/05 07:44:15;;;;;;;14.33;3.53;;;3.10;99.90;;;;;;4999792;28;20177;-79
2022/01/05 07:46:41;;;;;;;7.37;3.20;;;3.10;99.90;;;;;;4997639;28;20227;-80
2022/01/05 07:49:07;;;;;;;11.53;3.77;;;3.20;99.90;;;;;;4997211;28;20482;-81
2022/01/05 07:51:33;;;;;;;10.80;3.50;;;3.20;99.90;;;;;;4998184;28;20218;-81
2022/01/05 07:53:59;;;;;;;6.07;3.47;;;3.30;99.90;;;;;;4996389;28;20800;-80
2022/01/05 07:56:26;;;;;;;6.43;3.80;;;3.30;99.90;;;;;;4999379;28;20427;-81
2022/01/05 07:58:52;;;;;;;11.63;3.53;;;3.30;99.90;;;;;;4999314;28;20846;-81
2022/01/05 08:01:18;;;;;;;10.33;3.77;;;3.30;99.90;;;;;;4999164;28;20427;-81
2022/01/05 08:03:48;;;;;;;8.47;3.90;;;3.40;99.90;;;;;;4998128;28;20189;-77
2022/01/05 08:06:14;;;;;;;8.17;4.23;;;3.40;99.90;;;;;;4995887;28;20456;-78
2022/01/05 08:08:42;;;;;;;10.17;3.37;;;3.30;99.90;;;;;;4996829;28;20443;-79
2022/01/05 08:11:08;;;;;;;13.10;3.60;;;3.40;99.90;;;;;;4997978;28;21055;-79
2022/01/05 08:13:33;;;;;;;8.93;3.50;;;3.40;99.90;;;;;;4997714;28;20424;-79
2022/01/05 08:15:59;;;;;;;10.97;3.93;;;3.40;99.90;;;;;;4997311;28;20211;-79
2022/01/05 08:18:25;;;;;;;9.73;4.00;;;3.50;99.90;;;;;;4997396;28;20187;-79
2022/01/05 08:20:51;;;;;;;7.47;3.87;;;3.40;99.90;;;;;;4997020;28;20219;-80
2022/01/05 08:23:18;;;;;;;9.70;3.90;;;3.50;99.90;;;;;;4993846;28;20525;-78
2022/01/05 08:25:44;;;;;;;20.67;4.53;;;3.50;99.90;;;;;;4999810;28;20271;-79
2022/01/05 08:28:11;;;;;;;7.37;3.37;;;3.50;99.90;;;;;;4981817;28;20838;-78
2022/01/05 08:30:38;;;;;;;11.53;4.20;;;3.50;99.90;;;;;;4981364;28;20462;-78
2022/01/05 08:33:05;;;;;;;8.83;3.30;;;3.60;99.90;;;;;;4998128;28;20806;-78
2022/01/05 08:35:32;;;;;;;7.90;3.83;;;3.60;99.90;;;;;;4998187;28;20471;-78
2022/01/05 08:37:59;;;;;;;8.50;4.27;;;3.60;99.90;;;;;;4997946;28;20416;-79
2022/01/05 08:40:26;;;;;;;7.40;3.70;;;3.60;99.90;;;;;;5009163;28;20427;-78
2022/01/05 08:42:54;;;;;;;6.70;3.47;;;3.70;99.90;;;;;;5001178;28;20483;-79
2022/01/05 08:45:20;;;;;;;11.57;4.40;;;3.60;99.90;;;;;;5001418;28;20760;-79
2022/01/05 08:47:48;;;;;;;10.90;3.90;;;3.70;99.90;;;;;;5000520;28;20438;-78
2022/01/05 08:50:21;;;;;;;7.80;3.53;;;3.70;99.90;;;;;;5001253;28;20506;-79
2022/01/05 08:52:47;;;;;;;9.67;3.67;;;3.70;99.90;;;;;;5002635;28;20447;-79
2022/01/05 08:55:14;;;;;;;7.87;3.40;;;3.80;99.90;;;;;;5001464;28;20464;-80
2022/01/05 08:57:42;;;;;;;9.10;4.37;;;3.80;99.90;;;;;;5002589;28;20423;-79
2022/01/05 09:00:09;;;;;;;10.80;3.37;;;3.80;99.90;;;;;;5002942;28;20791;-79
2022/01/05 09:02:36;;;;;;;9.33;3.00;;;3.90;99.90;;;;;;5003479;28;20467;-79
2022/01/05 09:05:03;;;;;;;11.07;4.67;;;3.90;99.90;;;;;;5002232;28;20435;-79
2022/01/05 09:07:28;;;;;;;8.70;3.03;;;3.90;99.90;;;;;;5003184;28;20474;-78
2022/01/05 09:09:54;;;;;;;6.70;2.93;;;4.00;99.90;;;;;;5003294;28;20467;-79
2022/01/05 09:12:20;;;;;;;10.17;3.50;;;4.10;99.90;;;;;;5004724;28;20279;-79
2022/01/05 09:14:46;;;;;;;7.90;3.30;;;4.00;99.90;;;;;;5005076;28;20216;-79
2022/01/05 09:17:12;;;;;;;7.03;3.33;;;4.00;99.90;;;;;;5003838;28;20177;-78
2022/01/05 09:19:37;;;;;;;7.03;3.53;;;3.90;99.90;;;;;;5004244;28;20481;-79
2022/01/05 09:22:04;;;;;;;10.87;3.87;;;4.00;99.90;;;;;;5010728;28;20267;-79
2022/01/05 09:24:30;;;;;;;8.97;3.53;;;4.00;99.90;;;;;;5012975;28;20594;-79
2022/01/05 09:27:02;;;;;;;15.70;4.00;;;4.10;99.90;;;;;;5021689;28;20442;-79
2022/01/05 09:29:29;;;;;;;13.20;3.93;;;4.10;99.90;;;;;;5022187;28;20849;-78
2022/01/05 09:31:55;;;;;;;12.20;3.73;;;4.10;99.90;;;;;;5022324;28;20435;-79
2022/01/05 09:34:21;;;;;;;9.00;3.50;;;4.20;99.90;;;;;;5022752;28;20414;-79
2022/01/05 09:36:50;;;;;;;7.57;3.47;;;4.30;99.90;;;;;;5022126;28;20506;-79
2022/01/05 09:42:01;;;;;;;7.80;4.10;;;4.50;99.90;;;;;;5038624;28;20471;-79
2022/01/05 09:44:30;;;;;;;7.63;3.80;;;4.60;99.90;;;;;;5020032;28;20419;-79
2022/01/05 09:47:21;;;;;;;7.73;3.97;;;4.60;99.90;;;;;;5019930;28;20431;-79
2022/01/05 09:50:03;;;;;;;6.87;3.00;;;4.70;99.90;;;;;;5019657;28;20460;-79
2022/01/05 09:52:34;;;;;;;8.60;3.53;;;4.90;99.90;;;;;;5018980;28;20441;-79
2022/01/05 09:55:02;;;;;;;9.40;4.10;;;5.00;99.90;;;;;;5019371;28;20424;-80
2022/01/05 09:57:28;;;;;;;10.07;3.40;;;5.00;99.90;;;;;;5019823;28;20453;-79
2022/01/05 09:59:56;;;;;;;10.27;3.97;;;5.00;99.90;;;;;;5019322;28;20430;-79
2022/01/05 10:02:22;;;;;;;6.93;3.40;;;4.90;99.90;;;;;;5018760;28;20444;-79
2022/01/05 10:04:48;;;;;;;7.97;3.43;;;4.80;99.90;;;;;;5018591;28;20847;-79
2022/01/05 10:07:14;;;;;;;7.20;3.67;;;4.80;99.90;;;;;;5018259;28;20458;-79
2022/01/05 10:09:42;;;;;;;5.97;4.33;;;4.80;99.90;;;;;;5019039;28;20255;-80
2022/01/05 10:12:09;;;;;;;8.17;3.20;;;5.00;99.90;;;;;;5018335;28;20436;-79
2022/01/05 10:14:37;;;;;;;6.47;3.27;;;5.10;99.90;;;;;;5017842;28;20426;-79
2022/01/05 10:17:12;;;;;;;7.83;3.67;;;5.30;99.90;;;;;;5018014;28;20426;-79
2022/01/05 10:19:38;;;;;;;9.80;3.80;;;5.30;99.90;;;;;;5018538;28;20424;-79
2022/01/05 10:22:25;;;;;;;11.43;4.00;;;5.30;99.90;;;;;;5017485;28;20441;-79
2022/01/05 10:24:53;;;;;;;10.13;3.13;;;5.40;99.90;;;;;;5017612;28;20429;-79
2022/01/05 10:27:21;;;;;;;12.27;4.50;;;5.60;99.90;;;;;;5017558;28;20445;-79
2022/01/05 10:30:04;;;;;;;10.57;4.57;;;5.40;99.90;;;;;;5017434;28;20468;-79
2022/01/05 10:32:33;;;;;;;9.67;3.10;;;5.30;99.90;;;;;;5018012;28;20441;-80
2022/01/05 10:35:04;;;;;;;8.53;4.20;;;5.20;99.90;;;;;;5017518;28;20429;-79
2022/01/05 10:37:30;;;;;;;7.60;4.03;;;5.00;99.90;;;;;;5017768;28;20454;-79
2022/01/05 10:40:23;;;;;;;7.83;3.37;;;5.10;99.90;;;;;;5017642;28;20427;-79
2022/01/05 10:42:51;;;;;;;7.70;3.53;;;5.10;99.90;;;;;;5014191;28;20450;-79
2022/01/05 10:45:19;;;;;;;7.97;4.00;;;5.00;99.90;;;;;;5016648;28;20467;-79
2022/01/05 10:48:15;;;;;;;8.63;4.00;;;5.00;99.90;;;;;;5015883;28;20432;-79
2022/01/05 10:50:41;;;;;;;6.50;3.90;;;4.90;99.90;;;;;;5022449;28;20459;-79
2022/01/05 10:53:08;;;;;;;8.77;3.30;;;5.00;99.90;;;;;;5019662;28;20812;-80
2022/01/05 10:55:45;;;;;;;13.40;3.60;;;5.00;99.90;;;;;;5020926;28;20526;-79
2022/01/05 10:58:15;;;;;;;10.47;3.90;;;5.30;99.90;;;;;;5020601;28;20425;-79
2022/01/05 11:00:44;;;;;;;6.47;3.50;;;5.40;99.90;;;;;;5037067;28;20525;-80
2022/01/05 11:03:30;;;;;;;11.23;3.93;;;5.60;99.90;;;;;;5019538;28;20447;-79
2022/01/05 11:06:03;;;;;;;6.90;3.27;;;5.70;99.90;;;;;;5020369;28;20461;-79
2022/01/05 11:09:00;;;;;;;6.33;4.20;;;5.70;99.90;;;;;;5019624;28;20423;-80
2022/01/05 11:11:36;;;;;;;6.53;3.83;;;5.60;99.90;;;;;;5019693;28;20500;-79
2022/01/05 11:14:13;;;;;;;8.07;4.50;;;5.70;99.90;;;;;;5020097;28;20419;-79
2022/01/05 11:16:43;;;;;;;5.90;3.43;;;5.80;99.90;;;;;;5018373;28;20425;-79
2022/01/05 11:19:28;;;;;;;6.20;3.97;;;5.90;99.90;;;;;;5018532;28;20429;-79
2022/01/05 11:22:17;;;;;;;7.47;4.23;;;5.90;99.90;;;;;;5019280;28;20441;-79
2022/01/05 11:24:51;;;;;;;6.13;3.60;;;5.90;99.90;;;;;;5017988;28;20429;-79
2022/01/05 11:27:25;;;;;;;7.27;4.33;;;5.90;99.90;;;;;;5017803;28;20857;-79
2022/01/05 11:29:51;;;;;;;12.53;4.80;;;6.00;99.90;;;;;;5017843;28;20468;-79
2022/01/05 11:32:20;;;;;;;8.07;4.03;;;5.90;99.90;;;;;;5018055;28;20442;-79
2022/01/05 11:34:47;;;;;;;7.03;3.77;;;5.80;99.90;;;;;;5017216;28;20430;-79
2022/01/05 11:37:13;;;;;;;10.93;4.40;;;5.80;99.90;;;;;;5017485;28;20422;-79
2022/01/05 11:39:48;;;;;;;6.40;4.07;;;5.80;99.90;;;;;;5017370;28;20872;-79
2022/01/05 11:42:19;;;;;;;13.43;5.80;;;5.90;99.90;;;;;;5017109;28;20503;-79
2022/01/05 11:44:47;;;;;;;9.63;5.40;;;5.80;99.90;;;;;;5017194;28;20438;-79
2022/01/05 11:47:35;;;;;;;14.03;4.33;;;5.90;99.90;;;;;;5016366;28;20426;-80
2022/01/05 11:50:24;;;;;;;8.20;4.40;;;5.80;99.90;;;;;;5016347;28;20468;-80
2022/01/05 11:53:06;;;;;;;11.03;7.07;;;6.80;99.90;;;;;;5016950;28;20858;-79
2022/01/05 11:55:56;;;;;;;6.53;3.57;;;8.40;99.90;;;;;;5016063;28;20910;-80
2022/01/05 11:58:26;;;;;;;8.60;4.30;;;9.80;99.90;;;;;;5016715;28;20423;-79
2022/01/05 12:01:17;;;;;;;10.13;3.93;;;10.40;99.90;;;;;;5016086;28;20417;-80
2022/01/05 12:03:53;;;;;;;6.90;3.60;;;11.00;99.90;;;;;;5016464;28;20489;-79
2022/01/05 12:06:19;;;;;;;5.70;3.80;;;12.00;99.90;;;;;;5016049;28;20423;-80
2022/01/05 12:08:53;;;;;;;6.17;3.77;;;11.60;99.90;;;;;;5015595;28;20426;-79
2022/01/05 12:11:35;;;;;;;11.57;5.17;;;9.70;99.90;;;;;;5015847;28;20493;-80
2022/01/05 12:14:06;;;;;;;10.70;4.30;;;8.80;99.90;;;;;;5016014;28;20419;-79
2022/01/05 12:17:00;;;;;;;9.87;3.60;;;8.10;99.90;;;;;;5015498;28;20472;-80
2022/01/05 12:19:37;;;;;;;7.07;3.93;;;7.60;99.90;;;;;;5015877;28;20434;-79
2022/01/05 12:22:24;;;;;;;7.67;3.70;;;7.40;99.90;;;;;;5015198;28;20439;-79
2022/01/05 12:24:56;;;;;;;8.07;3.00;;;8.90;99.90;;;;;;5015336;28;20426;-79
2022/01/05 12:27:24;;;;;;;8.50;3.57;;;9.80;99.90;;;;;;5014889;28;20435;-79
2022/01/05 12:29:51;;;;;;;6.43;3.40;;;10.30;99.90;;;;;;5015277;28;20919;-79
2022/01/05 12:32:35;;;;;;;5.67;3.00;;;10.90;99.90;;;;;;5016500;23;20582;-81
2022/01/05 12:35:04;;;;;;;8.00;3.40;;;11.70;99.90;;;;;;5001468;28;20429;-80
2022/01/05 12:37:42;;;;;;;6.03;3.30;;;11.50;99.90;;;;;;5000851;28;20443;-83
2022/01/05 12:40:27;;;;;;;9.50;3.60;;;10.80;99.90;;;;;;5000525;28;20523;-83
2022/01/05 12:43:08;;;;;;;7.00;3.83;;;9.60;99.90;;;;;;5000753;28;20452;-81
2022/01/05 12:45:57;;;;;;;6.97;4.00;;;8.40;99.90;;;;;;5000631;28;20460;-81
2022/01/05 12:48:32;;;;;;;12.70;4.83;;;7.90;99.90;;;;;;5000037;28;20501;-81
2022/01/05 12:51:22;;;;;;;10.57;4.70;;;7.60;99.90;;;;;;5000965;28;20511;-81
2022/01/05 12:54:11;;;;;;;7.20;3.37;;;7.10;99.90;;;;;;5005170;28;20445;-82
2022/01/05 12:56:53;;;;;;;7.83;3.67;;;6.70;99.90;;;;;;5001721;28;20423;-82
2022/01/05 12:59:33;;;;;;;10.50;4.00;;;6.60;99.90;;;;;;4997745;28;20488;-82
2022/01/05 13:02:04;;;;;;;10.07;4.17;;;6.60;99.90;;;;;;4997835;28;20499;-82
2022/01/05 13:04:31;;;;;;;11.13;5.03;;;6.50;99.90;;;;;;4998192;28;20417;-81